Time;durP1;ratioP1;P1;durP2;ratioP2;P2;SDS_P1;SDS_P2;PMS_P1;PMS_P2;Temp;Humidity;BMP_temperature;BMP_pressure;BME280_temperature;BME280_humidity;BME280_pressure;Samples;Min_cycle;Max_cycle;Signal;HPM_P1;HPM_P2
2022/01/15 00:01:09;;;;;;;1.70;1.57;;;;;;;;;;21155531;27;20591;-69
2022/01/15 00:11:11;;;;;;;1.33;1.23;;;;;;;;;;21107586;28;20229;-69
2022/01/15 00:21:14;;;;;;;1.87;1.50;;;-0.90;99.90;;;;;;21106692;28;20219;-69
2022/01/15 00:31:15;;;;;;;2.13;1.83;;;;;;;;;;21192439;27;20203;-69
2022/01/15 00:41:18;;;;;;;1.87;1.20;;;;;;;;;;21190367;27;20219;-69
2022/01/15 00:51:20;;;;;;;1.10;0.90;;;;;;;;;;21205805;27;20219;-69
2022/01/15 01:01:23;;;;;;;2.50;1.60;;;;;;;;;;21202366;27;20279;-69
2022/01/15 01:32:28;;;;;;;1.57;1.23;;;0.10;99.90;;;;;;21222916;28;20275;-69
2022/01/15 01:42:40;;;;;;;1.47;1.30;;;;;;;;;;21187271;28;20203;-69
2022/01/15 01:52:45;;;;;;;2.40;1.17;;;0.00;99.90;;;;;;21205187;28;20234;-69
2022/01/15 02:02:48;;;;;;;1.60;1.47;;;;;;;;;;21181130;27;20640;-69
2022/01/15 02:12:51;;;;;;;1.80;1.40;;;;;;;;;;21145031;28;20253;-69
2022/01/15 02:33:15;;;;;;;1.93;1.73;;;;;;;;;;21085623;22;20232;-71
2022/01/15 02:43:20;;;;;;;2.73;1.50;;;0.00;99.90;;;;;;21062045;28;20740;-71
2022/01/15 02:53:22;;;;;;;2.90;1.87;;;;;;;;;;21045735;28;20229;-71
2022/01/15 03:03:24;;;;;;;1.83;1.50;;;;;;;;;;21061062;28;20208;-71
2022/01/15 03:13:26;;;;;;;2.20;1.70;;;;;;;;;;21077603;28;20216;-71
2022/01/15 03:23:27;;;;;;;2.07;1.50;;;;;;;;;;21057092;28;20204;-71
2022/01/15 03:33:29;;;;;;;1.60;1.50;;;-0.10;99.90;;;;;;21057777;28;20240;-71
2022/01/15 03:43:31;;;;;;;2.87;1.77;;;;;;;;;;21053598;28;20196;-71
2022/01/15 03:53:33;;;;;;;1.83;1.63;;;;;;;;;;20955792;28;20695;-71
2022/01/15 04:03:35;;;;;;;3.60;2.43;;;;;;;;;;21003433;28;20294;-71
2022/01/15 04:13:37;;;;;;;0.80;0.77;;;;;;;;;;21062543;28;20252;-71
2022/01/15 04:23:39;;;;;;;1.33;1.23;;;;;;;;;;20961742;28;20668;-71
2022/01/15 04:33:41;;;;;;;1.67;1.10;;;;;;;;;;20966482;28;20294;-71
2022/01/15 04:43:43;;;;;;;3.47;2.07;;;;;;;;;;21061973;28;20259;-71
2022/01/15 04:53:45;;;;;;;2.10;1.37;;;;;;;;;;21069324;28;20228;-71
2022/01/15 05:03:47;;;;;;;1.37;1.07;;;;;;;;;;21051480;28;20209;-71
2022/01/15 05:13:49;;;;;;;1.97;1.27;;;;;;;;;;21069013;28;20258;-71
2022/01/15 05:23:51;;;;;;;1.60;1.50;;;;;;;;;;20956667;28;20237;-71
2022/01/15 05:33:53;;;;;;;1.30;1.10;;;;;;;;;;20882848;28;20791;-71
2022/01/15 05:44:00;;;;;;;1.73;1.33;;;;;;;;;;20901514;28;20221;-71
2022/01/15 05:54:10;;;;;;;2.40;1.33;;;0.10;99.90;;;;;;20916161;28;20639;-71
2022/01/15 06:04:12;;;;;;;1.87;1.47;;;;;;;;;;20904519;28;20225;-71
2022/01/15 06:14:13;;;;;;;11.17;2.93;;;;;;;;;;20948150;28;20762;-71
2022/01/15 06:24:15;;;;;;;1.57;1.23;;;;;;;;;;20968129;28;20272;-71
2022/01/15 06:34:17;;;;;;;2.17;1.57;;;;;;;;;;20955894;28;20267;-71
2022/01/15 06:44:18;;;;;;;2.07;1.73;;;;;;;;;;21004625;28;20692;-71
2022/01/15 06:54:20;;;;;;;2.10;1.47;;;;;;;;;;20902687;28;20209;-71
2022/01/15 07:04:22;;;;;;;1.60;1.50;;;;;;;;;;20892919;28;20299;-72
2022/01/15 07:14:25;;;;;;;2.57;2.20;;;;;;;;;;20892534;28;20233;-71
2022/01/15 07:24:26;;;;;;;3.30;1.47;;;;;;;;;;20999147;28;20217;-71
2022/01/15 07:34:28;;;;;;;2.80;1.83;;;;;;;;;;21072591;28;20217;-71
2022/01/15 07:44:30;;;;;;;2.13;1.73;;;;;;;;;;21016922;28;20277;-71
2022/01/15 07:54:32;;;;;;;3.77;2.10;;;;;;;;;;21073718;28;20216;-72
2022/01/15 08:04:34;;;;;;;4.37;2.63;;;;;;;;;;21038759;28;20270;-72
2022/01/15 08:14:35;;;;;;;2.73;2.17;;;;;;;;;;20980047;28;20590;-72
2022/01/15 08:24:37;;;;;;;2.73;2.43;;;;;;;;;;20914935;28;20638;-72
2022/01/15 08:34:42;;;;;;;6.77;3.27;;;;;;;;;;21144585;23;20611;-65
2022/01/15 08:44:45;;;;;;;2.70;1.90;;;;;;;;;;21087482;27;20211;-65
2022/01/15 08:54:48;;;;;;;5.30;2.80;;;;;;;;;;21152284;27;20235;-65
2022/01/15 09:04:50;;;;;;;2.80;1.93;;;;;;;;;;21101854;28;20215;-65
2022/01/15 09:14:58;;;;;;;3.10;2.33;;;;;;;;;;21103079;27;20227;-65
2022/01/15 09:25:00;;;;;;;3.30;2.43;;;;;;;;;;21062149;28;20679;-65
2022/01/15 09:35:04;;;;;;;2.80;2.13;;;0.60;99.90;;;;;;21064780;28;20755;-65
2022/01/15 09:45:08;;;;;;;5.90;3.63;;;;;;;;;;21179622;27;20291;-66
2022/01/15 09:55:12;;;;;;;7.17;4.17;;;0.40;99.90;;;;;;21161574;27;20224;-66
2022/01/15 10:05:16;;;;;;;5.40;2.97;;;0.40;99.90;;;;;;21203411;27;20619;-65
2022/01/15 10:15:18;;;;;;;8.77;3.57;;;0.70;99.90;;;;;;21154030;27;20268;-65
2022/01/15 10:25:21;;;;;;;4.73;3.43;;;0.60;99.90;;;;;;21147353;27;20237;-65
2022/01/15 10:35:25;;;;;;;5.60;3.30;;;;;;;;;;21198832;27;20239;-65
2022/01/15 10:45:34;;;;;;;5.07;3.57;;;;;;;;;;21188432;27;20204;-65
2022/01/15 10:55:37;;;;;;;4.83;3.60;;;0.70;99.90;;;;;;21061496;27;20702;-65
2022/01/15 11:05:51;;;;;;;4.80;3.23;;;0.80;99.90;;;;;;21156583;27;20261;-65
2022/01/15 11:15:56;;;;;;;4.33;2.33;;;;;;;;;;21135157;27;21172;-65
2022/01/15 11:26:02;;;;;;;6.40;4.27;;;0.90;99.90;;;;;;21162173;27;20219;-65
2022/01/15 11:36:04;;;;;;;3.83;2.53;;;;;;;;;;21115387;27;20734;-66
2022/01/15 11:46:25;;;;;;;4.00;2.67;;;;;;;;;;21060828;28;20258;-65
2022/01/15 11:56:28;;;;;;;3.23;2.50;;;;;;;;;;21097302;27;20700;-65
2022/01/15 12:06:30;;;;;;;4.20;2.37;;;;;;;;;;21052740;28;20779;-64
2022/01/15 12:16:36;;;;;;;4.20;3.10;;;;;;;;;;21050385;28;20245;-65
2022/01/15 12:26:38;;;;;;;5.83;3.37;;;;;;;;;;21099675;28;20233;-64
2022/01/15 12:36:48;;;;;;;3.67;2.97;;;;;;;;;;21095612;27;20212;-64
2022/01/15 12:46:58;;;;;;;4.37;2.63;;;;;;;;;;21128431;28;20204;-64
2022/01/15 12:57:00;;;;;;;3.23;2.07;;;;;;;;;;20997942;28;20219;-65
2022/01/15 13:07:03;;;;;;;3.50;2.90;;;;;;;;;;21017755;28;20788;-66
2022/01/15 13:17:05;;;;;;;6.17;2.70;;;;;;;;;;21021909;28;20909;-65
2022/01/15 13:27:06;;;;;;;5.23;2.77;;;;;;;;;;21083507;28;20203;-65
2022/01/15 13:37:13;;;;;;;3.40;2.43;;;1.10;99.90;;;;;;21108192;28;20543;-65
2022/01/15 13:47:15;;;;;;;4.93;2.93;;;;;;;;;;21110314;28;20239;-65
2022/01/15 13:57:25;;;;;;;5.27;2.63;;;1.10;99.90;;;;;;21109459;28;20219;-65
2022/01/15 14:07:28;;;;;;;6.23;3.80;;;;;;;;;;21113644;28;20686;-65
2022/01/15 14:17:32;;;;;;;3.77;2.67;;;1.20;99.90;;;;;;21124858;28;20236;-64
2022/01/15 14:27:34;;;;;;;3.20;2.90;;;;;;;;;;21115224;27;20232;-65
2022/01/15 14:37:36;;;;;;;4.77;3.40;;;;;;;;;;21088834;27;20257;-65
2022/01/15 14:47:38;;;;;;;6.20;3.57;;;;;;;;;;21068205;28;20212;-65
2022/01/15 14:57:41;;;;;;;7.97;3.20;;;1.60;99.90;;;;;;21090765;28;20219;-65
2022/01/15 15:07:44;;;;;;;5.70;4.03;;;;;;;;;;21178019;27;20237;-64
2022/01/15 15:17:46;;;;;;;5.20;3.60;;;;;;;;;;21174469;27;20241;-65
2022/01/15 15:27:48;;;;;;;5.30;3.73;;;;;;;;;;21179047;27;20686;-65
2022/01/15 15:37:51;;;;;;;5.33;3.50;;;;;;;;;;21089114;28;20297;-65
2022/01/15 15:47:53;;;;;;;6.33;4.10;;;;;;;;;;20999582;28;20209;-65
2022/01/15 15:57:56;;;;;;;3.50;2.60;;;;;;;;;;21166738;27;20223;-65
2022/01/15 16:07:58;;;;;;;5.17;3.03;;;1.40;99.90;;;;;;21124121;27;20638;-65
2022/01/15 16:18:00;;;;;;;7.20;4.13;;;;;;;;;;21126318;27;20260;-65
2022/01/15 16:28:03;;;;;;;4.73;3.53;;;;;;;;;;21104298;27;20288;-66
2022/01/15 16:38:04;;;;;;;6.13;3.70;;;;;;;;;;21095568;27;20882;-66
2022/01/15 16:48:06;;;;;;;3.17;2.87;;;;;;;;;;21164495;27;20207;-66
2022/01/15 16:58:09;;;;;;;4.43;3.03;;;;;;;;;;21157252;27;20284;-66
2022/01/15 17:08:11;;;;;;;4.47;3.33;;;;;;;;;;21171166;27;20219;-66
2022/01/15 17:18:12;;;;;;;4.77;2.90;;;;;;;;;;21168222;27;20219;-66
2022/01/15 17:28:15;;;;;;;4.77;2.80;;;;;;;;;;21130536;28;20647;-65
2022/01/15 17:38:17;;;;;;;3.83;3.33;;;;;;;;;;21109111;28;20695;-65
2022/01/15 17:48:19;;;;;;;6.27;4.37;;;;;;;;;;21101599;28;20272;-64
2022/01/15 17:58:21;;;;;;;5.10;3.60;;;;;;;;;;21115577;27;20598;-65
2022/01/15 18:08:23;;;;;;;3.87;2.57;;;;;;;;;;21046168;28;20212;-65
2022/01/15 18:18:25;;;;;;;4.77;3.77;;;;;;;;;;21106496;28;20234;-66
2022/01/15 18:28:27;;;;;;;6.93;5.03;;;;;;;;;;21114985;27;20224;-65
2022/01/15 18:38:29;;;;;;;5.57;3.70;;;;;;;;;;21127583;28;20806;-66
2022/01/15 18:48:31;;;;;;;6.63;3.83;;;;;;;;;;21113142;28;20300;-66
2022/01/15 18:58:33;;;;;;;8.80;3.50;;;;;;;;;;21110666;28;20308;-66
2022/01/15 19:08:35;;;;;;;7.50;4.60;;;;;;;;;;21139276;27;20204;-66
2022/01/15 19:18:37;;;;;;;6.90;5.37;;;;;;;;;;21130768;28;20212;-66
2022/01/15 19:28:39;;;;;;;3.53;2.77;;;;;;;;;;21100839;28;20253;-66
2022/01/15 19:38:41;;;;;;;5.43;3.73;;;;;;;;;;21107431;27;20292;-65
2022/01/15 19:48:43;;;;;;;5.23;3.10;;;;;;;;;;21116689;28;20242;-65
2022/01/15 19:58:45;;;;;;;8.43;4.93;;;;;;;;;;21099287;28;20293;-65
2022/01/15 20:08:47;;;;;;;5.70;3.50;;;;;;;;;;21142250;22;20235;-67
2022/01/15 20:18:49;;;;;;;5.87;3.67;;;;;;;;;;21139658;28;20277;-67
2022/01/15 20:28:51;;;;;;;5.07;3.10;;;;;;;;;;21139452;28;20215;-67
2022/01/15 20:38:54;;;;;;;6.70;3.53;;;1.40;99.90;;;;;;21134890;28;20227;-67
2022/01/15 20:48:55;;;;;;;7.77;4.50;;;1.20;99.90;;;;;;21100384;28;20252;-67
2022/01/15 20:58:58;;;;;;;3.73;3.10;;;;;;;;;;21138139;28;20273;-67
2022/01/15 21:09:04;;;;;;;3.57;2.47;;;;;;;;;;21121626;28;20639;-67
2022/01/15 21:19:08;;;;;;;3.87;2.13;;;;;;;;;;21137249;28;20602;-67
2022/01/15 21:29:11;;;;;;;4.70;2.87;;;;;;;;;;21120065;28;20249;-67
2022/01/15 21:39:13;;;;;;;4.40;3.80;;;1.30;99.90;;;;;;21132683;28;20593;-67
2022/01/15 21:49:16;;;;;;;7.83;4.60;;;;;;;;;;21144150;28;20280;-67
2022/01/15 21:59:19;;;;;;;4.00;2.87;;;;;;;;;;21119450;28;20216;-67
2022/01/15 22:09:22;;;;;;;4.83;2.90;;;;;;;;;;21135486;28;20231;-67
2022/01/15 22:19:24;;;;;;;4.93;3.13;;;;;;;;;;21119004;28;20219;-67
2022/01/15 22:29:26;;;;;;;6.20;3.30;;;;;;;;;;21156169;28;20733;-67
2022/01/15 22:39:29;;;;;;;6.63;3.47;;;;;;;;;;21154389;28;20235;-67
2022/01/15 22:49:31;;;;;;;4.00;2.67;;;;;;;;;;21110417;28;20238;-67
2022/01/15 22:59:33;;;;;;;4.30;2.90;;;;;;;;;;21147531;28;20240;-67
2022/01/15 23:09:35;;;;;;;2.87;2.63;;;;;;;;;;21113360;28;20219;-67
2022/01/15 23:19:37;;;;;;;2.63;2.13;;;;;;;;;;21112953;28;20623;-67
2022/01/15 23:29:39;;;;;;;3.00;2.43;;;;;;;;;;21111384;28;20269;-67
2022/01/15 23:39:42;;;;;;;3.40;2.40;;;;;;;;;;21143644;28;20924;-67
2022/01/15 23:49:44;;;;;;;2.73;2.10;;;;;;;;;;21127029;28;20212;-67
2022/01/15 23:59:48;;;;;;;2.63;2.40;;;;;;;;;;21126173;28;20232;-67
